Time;durP1;ratioP1;P1;durP2;ratioP2;P2;SDS_P1;SDS_P2;PMS_P1;PMS_P2;Temp;Humidity;BMP_temperature;BMP_pressure;BME280_temperature;BME280_humidity;BME280_pressure;Samples;Min_cycle;Max_cycle;Signal;HPM_P1;HPM_P2
2023/01/25 04:00:32;;;;;;;3.00;2.20;;;15.30;49.20;;;;;;5791555;23;45819;-65
2023/01/25 04:02:58;;;;;;;1.95;1.65;;;15.30;49.20;;;;;;4871806;23;46571;-60
2023/01/25 04:05:23;;;;;;;2.10;1.63;;;15.30;49.20;;;;;;4883257;28;45143;-59
2023/01/25 04:07:49;;;;;;;2.40;1.85;;;15.20;49.20;;;;;;4873360;29;45687;-59
2023/01/25 04:10:14;;;;;;;2.58;2.00;;;15.20;49.20;;;;;;4889015;28;45374;-61
2023/01/25 04:12:40;;;;;;;2.03;1.67;;;15.20;49.20;;;;;;4894468;28;45554;-59
2023/01/25 04:15:06;;;;;;;2.80;2.03;;;15.20;49.10;;;;;;4855375;29;45317;-61
2023/01/25 04:17:32;;;;;;;2.05;1.80;;;15.20;49.10;;;;;;4882595;28;45300;-61
2023/01/25 04:19:57;;;;;;;2.25;1.73;;;15.20;49.10;;;;;;4890042;28;44745;-61
2023/01/25 04:22:23;;;;;;;2.92;1.83;;;15.20;49.10;;;;;;4886454;28;45519;-61
2023/01/25 04:24:48;;;;;;;2.38;1.92;;;15.20;49.20;;;;;;4891987;28;45587;-59
2023/01/25 04:27:14;;;;;;;2.80;2.10;;;15.20;49.20;;;;;;4886153;28;44881;-60
2023/01/25 04:29:39;;;;;;;2.65;1.92;;;15.20;49.20;;;;;;4884410;28;45049;-60
2023/01/25 04:32:05;;;;;;;2.80;2.00;;;15.10;49.50;;;;;;4883719;28;45507;-60
2023/01/25 04:34:30;;;;;;;2.80;2.00;;;15.10;49.10;;;;;;4888405;28;45967;-60
2023/01/25 04:36:56;;;;;;;1.85;1.60;;;15.10;49.20;;;;;;4892004;28;45185;-57
2023/01/25 04:39:22;;;;;;;2.28;1.83;;;15.10;49.10;;;;;;4875246;29;44754;-61
2023/01/25 04:41:47;;;;;;;2.28;1.83;;;15.10;49.20;;;;;;4888360;28;46960;-58
2023/01/25 04:44:13;;;;;;;2.30;1.90;;;15.10;49.20;;;;;;4869783;29;45602;-59
2023/01/25 04:46:38;;;;;;;2.92;1.90;;;15.10;49.80;;;;;;4892097;28;44977;-60
2023/01/25 04:49:04;;;;;;;2.38;1.75;;;15.10;49.20;;;;;;4886086;28;45262;-61
2023/01/25 04:51:29;;;;;;;2.42;1.98;;;15.00;49.20;;;;;;4887795;28;45918;-59
2023/01/25 04:53:55;;;;;;;3.20;2.13;;;15.00;49.20;;;;;;4884689;28;45613;-62
2023/01/25 04:56:20;;;;;;;2.25;1.95;;;15.00;49.20;;;;;;4890958;28;45199;-58
2023/01/25 04:58:46;;;;;;;2.33;1.52;;;15.00;49.30;;;;;;4884935;28;45673;-58
2023/01/25 05:01:11;;;;;;;1.65;1.55;;;15.00;49.20;;;;;;4888144;28;45862;-60
2023/01/25 05:03:37;;;;;;;2.58;1.98;;;15.00;49.20;;;;;;4886874;28;45036;-61
2023/01/25 05:06:02;;;;;;;3.13;2.13;;;15.00;49.20;;;;;;4887260;28;45169;-59
2023/01/25 05:08:28;;;;;;;2.30;1.80;;;15.00;49.30;;;;;;4873989;29;45220;-62
2023/01/25 05:10:54;;;;;;;2.55;2.03;;;15.00;49.30;;;;;;4887805;28;46508;-58
2023/01/25 05:13:19;;;;;;;2.90;1.73;;;14.90;49.20;;;;;;4869531;28;44973;-60
2023/01/25 05:15:45;;;;;;;2.30;1.90;;;14.90;49.30;;;;;;4888146;28;45450;-58
2023/01/25 05:18:10;;;;;;;2.20;1.88;;;14.90;49.30;;;;;;4879944;28;45578;-60
2023/01/25 05:20:36;;;;;;;2.35;1.80;;;14.90;49.20;;;;;;4889027;28;45147;-60
2023/01/25 05:23:02;;;;;;;2.35;1.90;;;14.90;49.20;;;;;;4887683;28;45463;-60
2023/01/25 05:28:11;;;;;;;3.13;1.92;;;14.90;49.30;;;;;;4889582;28;46594;-60
2023/01/25 05:30:37;;;;;;;2.42;1.85;;;14.90;49.30;;;;;;4890876;28;45389;-60
2023/01/25 05:33:02;;;;;;;2.40;1.95;;;14.90;49.30;;;;;;4886699;28;44598;-60
2023/01/25 05:35:28;;;;;;;2.50;1.90;;;14.90;49.30;;;;;;4889309;28;45416;-61
2023/01/25 05:38:00;;;;;;;2.83;2.03;;;14.90;49.30;;;;;;4888612;28;45629;-59
2023/01/25 05:40:25;;;;;;;2.33;1.88;;;14.90;49.40;;;;;;4884230;28;47695;-58
2023/01/25 05:42:58;;;;;;;2.65;1.88;;;14.80;49.20;;;;;;4889871;28;45282;-60
2023/01/25 05:45:24;;;;;;;2.13;1.73;;;14.80;49.30;;;;;;4883432;28;45684;-61
2023/01/25 05:47:53;;;;;;;2.47;1.83;;;14.80;49.30;;;;;;4883097;28;46359;-58
2023/01/25 05:50:19;;;;;;;2.50;1.75;;;14.80;49.30;;;;;;4886676;28;45551;-60
2023/01/25 05:52:46;;;;;;;3.38;2.00;;;14.80;49.30;;;;;;4889237;28;45326;-58
2023/01/25 05:55:11;;;;;;;2.70;1.80;;;14.80;49.30;;;;;;4887356;28;45253;-60
2023/01/25 05:57:37;;;;;;;2.33;1.70;;;14.80;49.30;;;;;;4887135;28;45379;-61
2023/01/25 06:00:03;;;;;;;2.60;1.83;;;14.80;49.30;;;;;;4890784;28;45733;-59
2023/01/25 06:02:30;;;;;;;2.10;1.70;;;14.70;49.30;;;;;;4882394;28;45428;-60
2023/01/25 06:04:56;;;;;;;2.15;1.73;;;14.70;49.30;;;;;;4885107;28;45807;-60
2023/01/25 06:07:21;;;;;;;2.88;2.00;;;14.80;49.30;;;;;;4891158;28;45756;-60
2023/01/25 06:09:47;;;;;;;2.42;1.77;;;14.70;49.30;;;;;;4883605;28;45247;-60
2023/01/25 06:12:15;;;;;;;2.92;1.90;;;14.70;49.30;;;;;;4886355;28;45252;-62
2023/01/25 06:14:41;;;;;;;2.38;2.03;;;14.70;49.30;;;;;;4888284;28;45216;-60
2023/01/25 06:17:06;;;;;;;2.22;1.60;;;14.70;49.30;;;;;;4884560;28;45218;-60
2023/01/25 06:19:32;;;;;;;2.53;1.90;;;14.70;49.30;;;;;;4888163;28;45823;-60
2023/01/25 06:21:57;;;;;;;3.28;2.17;;;14.70;49.30;;;;;;4888801;28;45289;-61
2023/01/25 06:24:23;;;;;;;2.25;1.77;;;14.70;49.40;;;;;;4884505;28;44696;-58
2023/01/25 06:26:48;;;;;;;2.95;2.13;;;14.70;49.40;;;;;;4881385;28;45272;-60
2023/01/25 06:29:14;;;;;;;2.55;1.88;;;14.70;49.40;;;;;;4883545;28;46733;-61
2023/01/25 06:31:39;;;;;;;3.03;2.03;;;14.70;49.40;;;;;;4885708;28;45565;-60
2023/01/25 06:34:06;;;;;;;3.33;2.28;;;14.70;49.30;;;;;;4882607;28;45217;-61
2023/01/25 06:36:32;;;;;;;2.85;2.00;;;14.70;49.40;;;;;;4885333;28;45131;-60
2023/01/25 06:38:58;;;;;;;2.15;1.85;;;14.70;50.00;;;;;;4873429;28;46427;-59
2023/01/25 06:41:23;;;;;;;2.90;2.10;;;14.60;49.40;;;;;;4868057;29;45026;-59
2023/01/25 06:43:49;;;;;;;3.50;2.42;;;14.60;49.30;;;;;;4883971;28;45237;-60
2023/01/25 06:46:15;;;;;;;3.47;2.22;;;14.60;49.30;;;;;;4885417;28;44729;-61
2023/01/25 06:48:41;;;;;;;8.07;5.35;;;14.60;49.10;;;;;;4890281;28;45286;-56
2023/01/25 06:51:10;;;;;;;10.10;6.65;;;14.20;46.30;;;;;;4878353;28;45320;-59
2023/01/25 06:53:38;;;;;;;11.55;6.05;;;13.90;46.30;;;;;;4889467;28;45102;-58
2023/01/25 06:56:08;;;;;;;10.90;6.68;;;13.80;46.70;;;;;;4886887;28;45345;-58
2023/01/25 06:58:34;;;;;;;9.55;6.07;;;13.80;46.80;;;;;;4888464;28;45625;-60
2023/01/25 07:01:01;;;;;;;7.70;4.97;;;13.90;46.60;;;;;;4891759;28;45316;-59
2023/01/25 07:03:27;;;;;;;8.10;5.20;;;14.00;46.90;;;;;;4888621;28;45319;-58
2023/01/25 07:06:00;;;;;;;8.88;5.20;;;14.10;47.30;;;;;;4881034;29;45232;-60
2023/01/25 07:08:26;;;;;;;7.75;5.10;;;14.30;47.00;;;;;;4887825;28;45517;-60
2023/01/25 07:10:55;;;;;;;8.95;5.20;;;14.50;46.80;;;;;;4879357;28;44952;-60
2023/01/25 07:13:21;;;;;;;8.45;4.97;;;14.70;46.40;;;;;;4882451;28;45668;-61
2023/01/25 07:16:01;;;;;;;8.20;5.00;;;15.00;46.20;;;;;;4876676;28;45290;-60
2023/01/25 07:18:27;;;;;;;7.55;4.70;;;15.30;45.90;;;;;;4878008;28;45270;-61
2023/01/25 07:20:52;;;;;;;6.97;4.30;;;15.40;45.70;;;;;;4880194;28;45066;-60
2023/01/25 07:23:18;;;;;;;6.45;4.35;;;15.70;45.50;;;;;;4887515;28;45528;-61
2023/01/25 07:25:48;;;;;;;5.75;3.78;;;15.90;45.30;;;;;;4884181;28;45680;-59
2023/01/25 07:28:14;;;;;;;6.53;4.50;;;16.10;45.10;;;;;;4879265;28;45715;-61
2023/01/25 07:30:40;;;;;;;7.28;4.55;;;16.20;45.00;;;;;;4882335;28;44985;-61
2023/01/25 07:33:06;;;;;;;6.38;4.05;;;16.40;44.90;;;;;;4882180;28;45268;-60
2023/01/25 07:35:32;;;;;;;6.07;4.30;;;16.60;44.80;;;;;;4885019;28;45510;-61
2023/01/25 07:37:57;;;;;;;5.78;3.97;;;16.80;44.70;;;;;;4887897;28;45297;-59
2023/01/25 07:40:24;;;;;;;5.95;4.05;;;16.90;44.60;;;;;;4882150;28;45358;-59
2023/01/25 07:42:50;;;;;;;6.85;4.10;;;17.00;44.50;;;;;;4882564;28;45434;-62
2023/01/25 07:45:16;;;;;;;6.22;4.18;;;16.90;44.60;;;;;;4883856;28;45342;-60
2023/01/25 07:47:44;;;;;;;6.38;4.07;;;17.00;44.70;;;;;;4889930;28;46722;-60
2023/01/25 07:50:10;;;;;;;6.25;3.92;;;17.10;44.70;;;;;;4890777;28;45543;-60
2023/01/25 07:52:35;;;;;;;6.10;3.78;;;17.30;44.60;;;;;;4881712;29;45025;-61
2023/01/25 07:55:01;;;;;;;5.22;3.83;;;17.50;44.50;;;;;;4904382;28;45224;-61
2023/01/25 07:57:27;;;;;;;5.15;3.35;;;17.70;44.30;;;;;;4875165;29;45104;-61
2023/01/25 07:59:53;;;;;;;5.95;4.07;;;17.80;44.10;;;;;;4884603;28;45242;-61
2023/01/25 08:02:19;;;;;;;5.38;3.70;;;18.00;44.00;;;;;;4889568;28;45154;-61
2023/01/25 08:04:44;;;;;;;5.75;3.90;;;18.20;43.90;;;;;;4891520;29;45115;-64
2023/01/25 08:07:10;;;;;;;5.72;3.58;;;18.30;43.80;;;;;;4890891;28;46624;-60
2023/01/25 08:09:36;;;;;;;4.40;3.50;;;18.50;43.60;;;;;;4868746;28;45321;-60
2023/01/25 08:12:02;;;;;;;5.47;3.13;;;18.70;43.50;;;;;;4883919;28;45258;-59
2023/01/25 08:14:27;;;;;;;4.80;2.95;;;18.80;43.40;;;;;;4888708;28;44678;-60
2023/01/25 08:16:53;;;;;;;5.22;3.40;;;19.00;43.30;;;;;;4893549;28;47123;-62
2023/01/25 08:19:20;;;;;;;5.07;3.38;;;19.10;43.20;;;;;;4889233;28;45209;-64
2023/01/25 08:21:46;;;;;;;5.50;3.90;;;19.20;43.20;;;;;;4888026;28;45680;-63
2023/01/25 08:24:11;;;;;;;4.70;3.35;;;19.20;43.10;;;;;;4872053;28;45830;-62
2023/01/25 08:26:37;;;;;;;5.53;3.45;;;19.20;43.20;;;;;;4893458;28;47200;-61
2023/01/25 08:29:03;;;;;;;5.10;3.63;;;19.20;43.30;;;;;;4892048;28;45030;-59
2023/01/25 08:31:30;;;;;;;5.20;3.88;;;19.30;43.30;;;;;;4891864;28;46376;-59
2023/01/25 08:33:56;;;;;;;5.72;3.70;;;19.50;43.20;;;;;;4887593;28;45908;-62
2023/01/25 08:36:23;;;;;;;5.55;3.30;;;19.60;43.00;;;;;;4891053;29;45353;-61
2023/01/25 08:38:52;;;;;;;4.13;3.08;;;19.80;42.90;;;;;;4861524;28;45197;-61
2023/01/25 08:41:20;;;;;;;4.85;3.45;;;19.90;42.60;;;;;;4891341;28;45291;-62
2023/01/25 08:43:46;;;;;;;4.53;3.05;;;20.10;42.60;;;;;;4889825;28;45266;-63
2023/01/25 08:46:12;;;;;;;4.97;3.35;;;20.30;42.50;;;;;;4888631;28;45477;-61
2023/01/25 08:48:38;;;;;;;3.95;3.05;;;20.40;42.40;;;;;;4896429;28;44974;-61
2023/01/25 08:51:04;;;;;;;4.88;3.55;;;20.50;42.30;;;;;;4889596;28;45752;-61
2023/01/25 08:53:30;;;;;;;4.57;3.03;;;20.60;42.20;;;;;;4892224;28;45678;-61
2023/01/25 08:55:55;;;;;;;4.65;3.10;;;20.80;42.10;;;;;;4886904;28;45866;-64
2023/01/25 08:58:21;;;;;;;4.28;3.30;;;20.80;42.00;;;;;;4889932;28;45184;-62
2023/01/25 09:00:46;;;;;;;4.90;3.28;;;21.00;42.00;;;;;;4881738;29;45749;-63
2023/01/25 09:03:12;;;;;;;5.38;3.28;;;21.10;41.90;;;;;;4891110;28;45409;-60
2023/01/25 09:05:38;;;;;;;4.85;3.30;;;21.20;41.90;;;;;;4888184;28;46797;-63
2023/01/25 09:08:04;;;;;;;5.22;3.40;;;21.20;41.70;;;;;;4888733;28;45430;-61
2023/01/25 09:10:30;;;;;;;4.85;3.17;;;21.20;41.80;;;;;;4892466;28;45634;-62
2023/01/25 09:12:55;;;;;;;4.40;2.92;;;21.20;41.90;;;;;;4890940;28;45233;-62
2023/01/25 09:15:24;;;;;;;4.18;2.97;;;21.20;41.90;;;;;;4887869;28;45633;-61
2023/01/25 09:17:54;;;;;;;4.45;3.20;;;21.30;41.90;;;;;;4869880;29;45568;-61
2023/01/25 09:20:19;;;;;;;4.32;3.00;;;21.40;41.70;;;;;;4887941;28;44984;-61
2023/01/25 09:22:45;;;;;;;6.10;3.13;;;21.60;41.60;;;;;;4890099;28;45418;-61
2023/01/25 09:25:10;;;;;;;6.88;2.97;;;21.70;41.50;;;;;;4890706;28;45973;-60
2023/01/25 09:27:36;;;;;;;4.28;3.00;;;21.80;41.30;;;;;;4885931;29;45280;-61
2023/01/25 09:30:03;;;;;;;3.03;2.65;;;22.00;41.30;;;;;;4888729;28;46545;-61
2023/01/25 09:32:29;;;;;;;4.13;3.05;;;22.00;41.20;;;;;;4889162;28;45722;-61
2023/01/25 09:34:54;;;;;;;4.15;3.13;;;22.10;41.30;;;;;;4892298;28;46789;-59
2023/01/25 09:37:20;;;;;;;3.60;2.97;;;22.10;41.10;;;;;;4888633;28;44972;-60
2023/01/25 09:39:45;;;;;;;2.80;2.30;;;22.20;41.20;;;;;;4889508;28;44674;-60
2023/01/25 09:42:42;;;;;;;3.80;2.80;;;22.30;41.20;;;;;;4890458;28;45295;-62
2023/01/25 09:45:31;;;;;;;2.97;2.35;;;22.40;40.80;;;;;;4886486;28;45611;-63
2023/01/25 09:48:12;;;;;;;4.57;2.90;;;22.50;40.60;;;;;;4882384;28;45509;-61
2023/01/25 09:50:57;;;;;;;4.88;2.67;;;22.60;40.80;;;;;;4887917;28;45224;-63
2023/01/25 09:53:23;;;;;;;3.00;2.35;;;22.60;40.80;;;;;;4882432;28;44894;-61
2023/01/25 09:55:57;;;;;;;3.67;2.40;;;22.70;41.00;;;;;;4890121;28;46297;-62
2023/01/25 09:58:35;;;;;;;3.45;2.33;;;22.80;40.80;;;;;;4883039;28;45159;-62
2023/01/25 10:01:12;;;;;;;3.22;2.28;;;22.90;40.60;;;;;;4870201;29;45402;-62
2023/01/25 10:03:49;;;;;;;3.58;2.85;;;22.90;40.60;;;;;;4886501;28;45261;-62
2023/01/25 10:06:14;;;;;;;2.92;2.35;;;23.00;40.40;;;;;;4883340;28;46808;-62
2023/01/25 10:09:14;;;;;;;6.38;3.08;;;23.10;40.80;;;;;;4885558;28;45158;-60
2023/01/25 10:11:40;;;;;;;2.92;2.30;;;23.20;40.30;;;;;;4882716;28;45360;-62
2023/01/25 10:14:14;;;;;;;4.72;2.65;;;23.20;40.50;;;;;;4884218;28;45324;-62
2023/01/25 10:16:42;;;;;;;3.75;2.80;;;23.20;40.30;;;;;;4865077;29;45445;-61
2023/01/25 10:19:43;;;;;;;4.70;2.75;;;23.20;40.60;;;;;;4885263;28;44641;-61
2023/01/25 10:22:23;;;;;;;4.05;2.90;;;23.10;40.70;;;;;;4868116;29;45657;-60
2023/01/25 10:25:12;;;;;;;3.03;2.25;;;23.20;40.40;;;;;;4884548;28;44914;-62
2023/01/25 10:27:47;;;;;;;2.67;2.38;;;23.20;40.70;;;;;;4890556;28;46407;-62
2023/01/25 10:30:31;;;;;;;2.65;2.25;;;23.30;40.50;;;;;;4892222;28;45210;-61
2023/01/25 10:32:58;;;;;;;2.90;2.42;;;23.40;40.50;;;;;;4865828;29;45386;-61
2023/01/25 10:35:31;;;;;;;3.00;2.55;;;23.50;40.60;;;;;;4884756;28;45164;-62
2023/01/25 10:38:06;;;;;;;3.35;2.63;;;23.50;40.40;;;;;;4873779;28;45612;-61
2023/01/25 10:40:38;;;;;;;2.85;2.22;;;23.60;40.40;;;;;;4890191;28;45159;-61
2023/01/25 10:43:06;;;;;;;2.60;2.20;;;23.70;40.30;;;;;;4875206;29;44937;-62
2023/01/25 10:45:32;;;;;;;2.30;2.10;;;23.70;40.30;;;;;;4889582;28;45419;-61
2023/01/25 10:48:02;;;;;;;2.67;2.20;;;23.80;40.30;;;;;;4886075;28;45355;-63
2023/01/25 10:50:45;;;;;;;2.95;2.03;;;23.90;40.30;;;;;;4890325;28;44898;-63
2023/01/25 10:53:19;;;;;;;2.53;2.00;;;23.90;39.80;;;;;;4887207;28;45446;-61
2023/01/25 10:56:09;;;;;;;3.22;2.63;;;24.00;39.90;;;;;;4888304;28;45098;-62
2023/01/25 10:58:42;;;;;;;2.50;2.10;;;24.10;40.00;;;;;;4886717;28;45890;-62
2023/01/25 11:01:28;;;;;;;4.45;2.67;;;24.10;40.20;;;;;;4881456;28;45234;-61
2023/01/25 11:03:53;;;;;;;3.08;2.17;;;24.20;39.70;;;;;;4886550;28;45195;-61
2023/01/25 11:06:33;;;;;;;3.35;2.17;;;24.30;40.10;;;;;;4875859;28;44733;-61
2023/01/25 11:08:59;;;;;;;3.05;2.33;;;24.30;39.70;;;;;;4885529;28;48041;-62
2023/01/25 11:11:35;;;;;;;3.45;2.40;;;24.40;40.10;;;;;;4868485;28;46335;-61
2023/01/25 11:14:00;;;;;;;3.55;2.38;;;24.40;39.70;;;;;;4889185;28;45262;-61
2023/01/25 11:16:37;;;;;;;2.63;2.17;;;24.40;40.00;;;;;;4888210;28;45170;-61
2023/01/25 11:19:09;;;;;;;2.75;2.20;;;24.40;39.80;;;;;;4870950;29;45894;-62
2023/01/25 11:21:34;;;;;;;3.17;2.30;;;24.40;39.90;;;;;;4876172;29;45491;-61
2023/01/25 11:24:10;;;;;;;3.40;2.22;;;24.40;39.80;;;;;;4889804;28;45397;-61
2023/01/25 11:26:37;;;;;;;2.63;2.10;;;24.40;39.80;;;;;;4876287;29;45895;-61
2023/01/25 11:29:21;;;;;;;2.70;2.08;;;24.40;39.80;;;;;;4872056;29;47891;-61
2023/01/25 11:31:50;;;;;;;4.00;2.65;;;24.40;39.40;;;;;;4887611;28;44788;-61
2023/01/25 11:34:17;;;;;;;3.08;2.25;;;24.30;39.90;;;;;;4889346;28;45653;-61
2023/01/25 11:37:05;;;;;;;2.90;2.30;;;24.30;40.00;;;;;;4890653;28;45547;-60
2023/01/25 11:39:43;;;;;;;3.00;2.40;;;24.20;39.50;;;;;;4891717;28;45500;-62
2023/01/25 11:42:22;;;;;;;3.00;2.15;;;24.10;39.70;;;;;;4891085;28;45320;-59
2023/01/25 11:44:57;;;;;;;3.08;2.40;;;24.10;40.00;;;;;;4889262;28;45284;-59
2023/01/25 11:47:56;;;;;;;2.28;1.92;;;24.10;39.90;;;;;;4888115;28;44755;-61
2023/01/25 11:50:27;;;;;;;2.22;1.63;;;24.10;39.70;;;;;;4887493;28;47054;-61
2023/01/25 11:53:15;;;;;;;2.70;2.10;;;24.00;40.20;;;;;;4890568;28;45332;-61
2023/01/25 11:56:11;;;;;;;3.20;2.53;;;23.80;40.60;;;;;;4888985;28;45313;-62
2023/01/25 11:58:45;;;;;;;3.45;2.47;;;23.80;40.10;;;;;;4892664;28;45424;-62
2023/01/25 12:01:37;;;;;;;3.35;2.25;;;23.90;40.20;;;;;;4873951;29;45583;-61
2023/01/25 12:04:14;;;;;;;2.85;2.17;;;24.00;40.10;;;;;;4887660;29;45724;-62
2023/01/25 12:07:02;;;;;;;3.53;2.45;;;24.00;40.10;;;;;;4890604;28;45274;-62
2023/01/25 12:09:49;;;;;;;2.67;2.10;;;24.10;39.90;;;;;;4874353;28;45008;-62
2023/01/25 12:12:34;;;;;;;2.03;1.73;;;24.10;39.90;;;;;;4888440;28;45379;-62
2023/01/25 12:15:16;;;;;;;2.38;2.00;;;24.20;40.00;;;;;;4891341;28;45525;-62
2023/01/25 12:18:14;;;;;;;2.75;2.20;;;24.20;40.00;;;;;;4892705;28;45001;-61
2023/01/25 12:20:59;;;;;;;2.85;1.92;;;24.30;40.00;;;;;;4891406;28;46259;-62
2023/01/25 12:23:43;;;;;;;2.72;2.13;;;24.30;40.20;;;;;;4892358;28;45579;-62
2023/01/25 12:26:18;;;;;;;2.83;2.28;;;24.40;40.00;;;;;;4892448;28;45684;-62
2023/01/25 12:28:47;;;;;;;2.10;1.80;;;24.40;40.00;;;;;;4892080;28;45566;-62
2023/01/25 12:31:19;;;;;;;2.42;2.00;;;24.50;40.10;;;;;;4888625;28;45650;-60
2023/01/25 12:34:15;;;;;;;2.85;2.35;;;24.50;40.00;;;;;;4889974;28;45476;-62
2023/01/25 12:36:47;;;;;;;2.90;2.22;;;24.50;39.80;;;;;;4883040;28;46104;-61
2023/01/25 12:39:16;;;;;;;2.08;1.88;;;24.60;40.00;;;;;;4891577;28;45519;-62
2023/01/25 12:41:52;;;;;;;2.58;2.10;;;24.60;40.00;;;;;;4890351;28;45669;-63
2023/01/25 12:44:24;;;;;;;2.50;2.00;;;24.60;39.80;;;;;;4878929;28;45563;-62
2023/01/25 12:47:00;;;;;;;2.88;2.05;;;24.70;40.00;;;;;;4890376;28;45231;-62
2023/01/25 12:49:46;;;;;;;3.30;2.38;;;24.70;39.70;;;;;;4888180;28;45360;-63
2023/01/25 12:52:23;;;;;;;2.33;2.00;;;24.70;39.60;;;;;;4874386;28;45638;-63
2023/01/25 12:54:48;;;;;;;2.60;2.00;;;24.70;39.80;;;;;;4876088;29;46005;-62
2023/01/25 12:57:42;;;;;;;2.38;1.92;;;24.70;40.50;;;;;;4872348;29;46488;-62
2023/01/25 13:00:19;;;;;;;;;;;24.70;39.60;;;;;;4889842;28;45577;-62
2023/01/25 13:02:51;;;;;;;3.08;2.28;;;24.60;39.60;;;;;;4888743;28;45619;-61
2023/01/25 13:05:28;;;;;;;3.35;2.53;;;24.60;40.10;;;;;;4890121;28;45711;-61
2023/01/25 13:08:02;;;;;;;2.08;1.63;;;24.60;39.90;;;;;;4889949;28;45403;-61
2023/01/25 13:10:49;;;;;;;2.58;2.00;;;24.60;39.90;;;;;;4892137;28;46243;-63
2023/01/25 13:13:24;;;;;;;2.97;2.03;;;24.60;39.90;;;;;;4891300;28;45274;-62
2023/01/25 13:15:49;;;;;;;3.17;2.17;;;24.70;39.90;;;;;;4894165;28;46600;-61
2023/01/25 13:18:27;;;;;;;3.90;2.15;;;24.70;40.00;;;;;;4877820;29;45434;-62
2023/01/25 13:20:54;;;;;;;2.95;2.15;;;24.80;39.70;;;;;;4892830;28;45743;-63
2023/01/25 13:23:32;;;;;;;3.35;2.10;;;24.70;39.80;;;;;;4887108;28;44753;-62
2023/01/25 13:26:20;;;;;;;3.33;1.92;;;24.60;40.00;;;;;;4891575;29;45623;-60
2023/01/25 13:28:45;;;;;;;1.73;1.60;;;24.50;40.00;;;;;;4893093;28;45363;-62
2023/01/25 13:31:36;;;;;;;3.85;2.40;;;24.50;40.20;;;;;;4891447;28;45251;-61
2023/01/25 13:34:02;;;;;;;2.13;1.70;;;24.60;39.90;;;;;;4887374;28;45277;-61
2023/01/25 13:36:40;;;;;;;2.47;1.50;;;24.60;40.20;;;;;;4890362;28;46399;-61
2023/01/25 13:39:25;;;;;;;2.58;2.10;;;24.70;39.90;;;;;;4889319;28;45211;-61
2023/01/25 13:42:04;;;;;;;2.47;1.95;;;24.70;39.80;;;;;;4894283;28;45285;-62
2023/01/25 13:44:33;;;;;;;2.33;1.75;;;24.80;39.90;;;;;;4872670;29;44789;-62
2023/01/25 13:47:00;;;;;;;2.55;1.80;;;24.80;40.00;;;;;;4890053;28;45627;-62
2023/01/25 13:49:35;;;;;;;2.25;2.03;;;24.80;40.00;;;;;;4882733;29;44954;-63
2023/01/25 13:52:00;;;;;;;3.40;1.67;;;24.90;40.00;;;;;;4885122;28;45444;-63
2023/01/25 13:54:26;;;;;;;2.75;1.98;;;24.90;40.00;;;;;;4887080;28;45525;-61
2023/01/25 13:57:05;;;;;;;2.35;1.70;;;24.90;40.00;;;;;;4887225;28;46827;-62
2023/01/25 13:59:30;;;;;;;2.97;1.90;;;24.90;39.80;;;;;;4869634;29;45287;-63
2023/01/25 14:01:56;;;;;;;3.00;1.95;;;25.00;39.90;;;;;;4885974;28;45545;-63
2023/01/25 14:04:22;;;;;;;2.47;1.77;;;25.00;39.80;;;;;;4885907;28;45569;-64
2023/01/25 14:06:47;;;;;;;2.33;1.83;;;25.00;39.80;;;;;;4883506;28;45822;-63
2023/01/25 14:09:15;;;;;;;2.20;1.77;;;25.00;39.80;;;;;;4868338;29;46415;-63
2023/01/25 14:12:09;;;;;;;3.33;2.38;;;25.00;39.80;;;;;;4887744;28;44778;-62
2023/01/25 14:14:35;;;;;;;3.58;1.60;;;25.00;39.70;;;;;;4902516;28;45911;-63
2023/01/25 14:17:16;;;;;;;3.15;2.08;;;24.90;40.00;;;;;;4887882;28;45189;-63
2023/01/25 14:19:49;;;;;;;3.28;1.88;;;24.90;39.90;;;;;;4877844;29;45570;-63
2023/01/25 14:22:25;;;;;;;2.20;2.00;;;24.90;40.00;;;;;;4890208;28;45455;-63
2023/01/25 14:25:13;;;;;;;2.30;1.60;;;24.80;40.00;;;;;;4887298;28;45296;-63
2023/01/25 14:27:52;;;;;;;2.30;1.75;;;24.80;39.90;;;;;;4888657;28;45357;-63
2023/01/25 14:30:21;;;;;;;2.03;1.80;;;24.90;40.10;;;;;;4888871;28;45866;-60
2023/01/25 14:32:47;;;;;;;1.98;1.70;;;24.90;40.00;;;;;;4889308;28;45698;-62
2023/01/25 14:35:28;;;;;;;2.00;1.70;;;24.90;40.00;;;;;;4886294;28;46609;-63
2023/01/25 14:37:54;;;;;;;2.15;1.65;;;25.00;39.80;;;;;;4888070;28;45769;-63
2023/01/25 14:40:21;;;;;;;3.30;1.83;;;25.00;40.00;;;;;;4903288;28;45386;-63
2023/01/25 14:42:47;;;;;;;2.22;1.63;;;25.10;40.00;;;;;;4888869;28;45193;-62
2023/01/25 14:45:13;;;;;;;2.50;1.77;;;25.10;39.90;;;;;;4886322;28;45265;-63
2023/01/25 14:47:38;;;;;;;2.38;1.85;;;25.20;40.60;;;;;;4871761;28;47145;-63
2023/01/25 14:50:32;;;;;;;2.28;1.80;;;25.20;39.90;;;;;;4887223;28;45734;-62
2023/01/25 14:52:59;;;;;;;1.95;1.67;;;25.30;39.60;;;;;;4888830;28;45354;-60
2023/01/25 14:55:24;;;;;;;2.33;1.80;;;25.30;39.90;;;;;;4886376;28;45865;-64
2023/01/25 14:57:50;;;;;;;2.95;1.92;;;25.20;39.90;;;;;;4856943;29;45756;-62
2023/01/25 15:00:22;;;;;;;1.75;1.50;;;25.10;40.10;;;;;;4871129;28;45375;-61
2023/01/25 15:02:55;;;;;;;2.50;2.13;;;25.10;40.20;;;;;;4870995;29;44942;-60
2023/01/25 15:05:29;;;;;;;1.73;1.42;;;25.10;40.20;;;;;;4887708;28;46166;-63
2023/01/25 15:08:06;;;;;;;2.17;1.80;;;25.10;40.10;;;;;;4885470;28;45405;-62
2023/01/25 15:10:33;;;;;;;2.20;1.77;;;25.10;40.20;;;;;;4885656;28;45684;-60
2023/01/25 15:13:01;;;;;;;2.55;1.67;;;25.10;40.20;;;;;;4886023;29;45549;-63
2023/01/25 15:15:29;;;;;;;2.60;1.80;;;25.10;40.30;;;;;;4871046;29;45103;-62
2023/01/25 15:17:55;;;;;;;2.00;1.80;;;25.00;40.30;;;;;;4870967;29;46323;-63
2023/01/25 15:20:25;;;;;;;2.40;2.00;;;25.00;40.30;;;;;;4885748;28;45850;-62
2023/01/25 15:22:51;;;;;;;3.00;1.90;;;25.00;41.00;;;;;;4887098;28;45889;-62
2023/01/25 15:25:17;;;;;;;1.95;1.52;;;25.00;40.40;;;;;;4871654;28;45795;-63
2023/01/25 15:27:42;;;;;;;3.17;1.70;;;25.00;40.40;;;;;;4884971;28;45747;-64
2023/01/25 15:30:12;;;;;;;2.35;1.83;;;25.00;40.40;;;;;;4889626;28;45236;-63
2023/01/25 15:32:38;;;;;;;2.72;1.90;;;25.10;40.40;;;;;;4869902;28;46247;-62
2023/01/25 15:35:05;;;;;;;1.83;1.52;;;25.10;40.40;;;;;;4883306;28;45369;-63
2023/01/25 15:37:31;;;;;;;1.80;1.63;;;25.20;40.40;;;;;;4887189;28;46667;-62
2023/01/25 15:39:57;;;;;;;1.67;1.58;;;25.20;40.40;;;;;;4889807;28;45771;-63
2023/01/25 15:42:22;;;;;;;2.05;1.75;;;25.20;40.30;;;;;;4887034;28;45062;-63
2023/01/25 15:44:48;;;;;;;2.15;1.75;;;25.30;40.40;;;;;;4886470;28;45607;-63
2023/01/25 15:47:13;;;;;;;2.33;1.70;;;25.30;40.40;;;;;;4889715;28;46987;-62
2023/01/25 15:49:39;;;;;;;2.15;1.70;;;25.30;40.40;;;;;;4884710;28;45070;-63
2023/01/25 15:52:05;;;;;;;1.60;1.50;;;25.40;40.40;;;;;;4884413;28;45203;-62
2023/01/25 15:54:30;;;;;;;2.03;1.52;;;25.40;41.00;;;;;;4878905;28;45352;-62
2023/01/25 15:56:57;;;;;;;2.03;1.50;;;25.40;40.30;;;;;;4886682;28;46257;-61
2023/01/25 15:59:22;;;;;;;2.35;1.92;;;25.30;40.20;;;;;;4875264;29;45313;-62
2023/01/25 16:01:48;;;;;;;1.80;1.40;;;25.20;40.20;;;;;;4883080;28;45520;-62
2023/01/25 16:04:13;;;;;;;2.05;1.65;;;25.10;40.30;;;;;;4885343;28;45391;-62
2023/01/25 16:06:47;;;;;;;2.67;2.03;;;24.90;40.40;;;;;;4871684;28;45503;-62
2023/01/25 16:09:18;;;;;;;3.28;2.20;;;24.80;40.60;;;;;;4884785;28;46074;-62
2023/01/25 16:11:44;;;;;;;2.38;1.77;;;24.60;40.70;;;;;;4884141;28;45258;-62
2023/01/25 16:14:10;;;;;;;2.15;1.90;;;24.50;40.90;;;;;;4887338;28;45143;-61
2023/01/25 16:16:41;;;;;;;2.60;1.73;;;24.40;41.10;;;;;;4884134;28;46879;-62
2023/01/25 16:19:12;;;;;;;2.40;2.10;;;24.30;41.30;;;;;;4887397;28;45086;-62
2023/01/25 16:21:37;;;;;;;1.92;1.63;;;24.20;41.50;;;;;;4869290;29;45636;-62
2023/01/25 16:24:03;;;;;;;2.63;1.77;;;24.10;41.60;;;;;;4886425;28;45605;-61
2023/01/25 16:26:29;;;;;;;2.03;1.80;;;24.00;41.80;;;;;;4884466;28;45380;-62
2023/01/25 16:28:55;;;;;;;2.63;2.03;;;23.90;41.80;;;;;;4871184;29;45739;-62
2023/01/25 16:31:20;;;;;;;2.42;1.58;;;23.80;41.90;;;;;;4885493;28;45507;-62
2023/01/25 16:33:47;;;;;;;2.35;1.90;;;23.70;42.00;;;;;;4884912;28;46184;-61
2023/01/25 16:36:20;;;;;;;2.50;1.90;;;23.60;42.10;;;;;;4882146;28;46294;-62
2023/01/25 16:38:46;;;;;;;2.17;1.73;;;23.50;42.20;;;;;;4885303;28;45403;-62
2023/01/25 16:41:15;;;;;;;1.88;1.60;;;23.40;42.30;;;;;;4870614;28;45280;-62
2023/01/25 16:43:42;;;;;;;2.28;2.03;;;23.30;42.40;;;;;;4886017;28;46570;-62
2023/01/25 16:46:17;;;;;;;2.05;1.70;;;23.30;42.50;;;;;;4885173;28;45535;-62
2023/01/25 16:48:44;;;;;;;2.53;1.98;;;23.20;42.60;;;;;;4885963;28;45869;-62
2023/01/25 16:51:23;;;;;;;2.03;1.83;;;23.10;42.70;;;;;;4886122;28;45575;-62
2023/01/25 16:53:50;;;;;;;2.58;2.00;;;23.00;42.80;;;;;;4854613;29;45704;-62
2023/01/25 16:56:19;;;;;;;3.10;2.20;;;23.00;42.90;;;;;;4885192;28;45462;-62
2023/01/25 16:58:45;;;;;;;2.63;2.05;;;22.90;42.90;;;;;;4882690;28;45698;-62
2023/01/25 17:01:11;;;;;;;2.85;2.10;;;22.80;43.00;;;;;;4880146;28;44765;-62
2023/01/25 17:03:36;;;;;;;2.97;2.20;;;22.70;43.10;;;;;;4886993;28;45371;-60
2023/01/25 17:06:03;;;;;;;2.60;2.20;;;22.60;43.20;;;;;;4886606;28;47003;-61